Time;durP1;ratioP1;P1;durP2;ratioP2;P2;SDS_P1;SDS_P2;PMS_P1;PMS_P2;Temp;Humidity;BMP_temperature;BMP_pressure;BME280_temperature;BME280_humidity;BME280_pressure;Samples;Min_cycle;Max_cycle;Signal;HPM_P1;HPM_P2
2022/11/21 00:00:51;;;;;;;;;1.67;1.00;;;;;10.07;72.18;100817.09;5099470;27;45390;-56
2022/11/21 00:03:17;;;;;;;;;3.67;1.33;;;;;10.12;72.26;100827.28;5099210;27;45447;-56
2022/11/21 00:05:45;;;;;;;;;3.00;1.00;;;;;10.08;72.21;100826.72;5099336;27;46567;-52
2022/11/21 00:08:12;;;;;;;;;2.00;1.67;;;;;10.08;72.42;100829.38;5099374;27;45471;-56
2022/11/21 00:10:38;;;;;;;;;3.67;2.33;;;;;10.07;72.44;100835.69;5099429;27;45421;-55
2022/11/21 00:13:05;;;;;;;;;5.33;1.00;;;;;10.06;72.22;100830.50;5099392;27;45555;-55
2022/11/21 00:15:32;;;;;;;;;2.00;1.00;;;;;10.07;72.08;100827.72;5099230;27;46266;-56
2022/11/21 00:17:57;;;;;;;;;1.00;1.00;;;;;10.04;72.29;100819.19;5099223;27;45371;-57
2022/11/21 00:20:22;;;;;;;;;3.00;1.67;;;;;10.06;72.33;100826.03;5099395;27;46002;-56
2022/11/21 00:22:48;;;;;;;;;6.00;2.00;;;;;10.06;72.67;100830.50;5099500;27;45374;-55
2022/11/21 00:25:14;;;;;;;;;5.00;1.00;;;;;10.05;72.26;100832.31;5099183;27;46128;-56
2022/11/21 00:27:40;;;;;;;;;7.00;2.00;;;;;10.01;72.49;100820.28;5098856;27;45446;-55
2022/11/21 00:30:08;;;;;;;;;2.00;2.00;;;;;10.01;72.53;100804.34;5099003;27;45472;-55
2022/11/21 00:32:34;;;;;;;;;2.00;1.00;;;;;9.99;72.42;100803.66;5099270;27;45345;-54
2022/11/21 00:34:59;;;;;;;;;2.00;2.00;;;;;9.99;72.51;100787.72;5098593;27;45970;-53
2022/11/21 00:37:24;;;;;;;;;2.00;2.00;;;;;9.96;72.31;100794.16;5098693;27;45364;-55
2022/11/21 00:39:50;;;;;;;;;2.00;2.00;;;;;9.91;72.79;100784.94;5098971;27;45307;-55
2022/11/21 00:42:15;;;;;;;;;6.67;2.67;;;;;9.95;72.74;100781.84;5099155;27;45508;-52
2022/11/21 00:44:41;;;;;;;;;4.00;1.00;;;;;9.95;72.65;100776.53;5098772;27;45283;-54
2022/11/21 00:47:06;;;;;;;;;5.33;2.00;;;;;9.95;72.84;100779.19;5098569;27;45491;-53
2022/11/21 00:49:33;;;;;;;;;5.00;3.00;;;;;9.91;72.60;100772.47;5098914;27;45436;-54
2022/11/21 00:51:58;;;;;;;;;3.67;1.00;;;;;9.95;72.75;100770.38;5099122;27;45460;-54
2022/11/21 00:54:24;;;;;;;;;5.67;3.00;;;;;9.93;73.43;100767.84;5098528;27;45331;-49
2022/11/21 00:56:49;;;;;;;;;1.00;0.67;;;;;9.90;73.03;100769.94;5098589;27;45352;-50
2022/11/21 00:59:15;;;;;;;;;6.33;2.00;;;;;9.91;72.94;100758.34;5098702;27;45677;-54
2022/11/21 01:01:40;;;;;;;;;5.33;2.00;;;;;9.93;73.22;100762.53;5098742;27;45462;-51
2022/11/21 01:04:05;;;;;;;;;4.00;1.33;;;;;9.93;73.07;100759.88;5098541;27;46514;-53
2022/11/21 01:06:31;;;;;;;;;2.33;2.00;;;;;9.93;73.13;100759.88;5098358;27;45306;-57
2022/11/21 01:08:56;;;;;;;;;3.67;1.33;;;;;9.94;72.99;100752.75;5098411;27;45249;-51
2022/11/21 01:11:21;;;;;;;;;6.00;2.67;;;;;9.91;73.06;100755.69;5098617;27;45234;-56
2022/11/21 01:13:48;;;;;;;;;5.00;1.67;;;;;9.93;73.45;100754.56;5098521;27;46034;-55
2022/11/21 01:16:15;;;;;;;;;6.00;2.33;;;;;9.93;73.58;100743.94;5098217;27;45594;-56
2022/11/21 01:18:41;;;;;;;;;10.67;2.00;;;;;9.93;73.37;100745.75;5098295;27;45262;-52
2022/11/21 01:21:15;;;;;;;;;6.00;1.00;;;;;9.91;73.58;100743.25;5098621;27;45377;-54
2022/11/21 01:23:41;;;;;;;;;2.00;2.00;;;;;9.91;73.59;100739.75;5098197;27;46036;-54
2022/11/21 01:26:10;;;;;;;;;2.67;2.67;;;;;9.90;73.31;100738.94;5097926;27;45519;-54
2022/11/21 01:28:36;;;;;;;;;10.33;2.00;;;;;9.92;73.69;100730.78;5098435;27;45338;-55
2022/11/21 01:31:13;;;;;;;;;2.00;2.00;;;;;9.92;73.58;100733.44;5098268;27;45216;-55
2022/11/21 01:33:39;;;;;;;;;2.00;1.00;;;;;9.90;73.71;100738.94;5098069;27;46117;-53
2022/11/21 01:36:13;;;;;;;;;3.00;1.33;;;;;9.88;73.64;100735.56;5097903;27;45219;-53
2022/11/21 01:38:44;;;;;;;;;5.00;2.33;;;;;9.86;74.01;100726.03;5097994;27;45379;-52
2022/11/21 01:41:11;;;;;;;;;5.00;2.00;;;;;9.89;73.68;100720.44;5098166;27;45385;-49
2022/11/21 01:43:37;;;;;;;;;2.00;2.00;;;;;9.89;74.02;100715.13;5097826;27;46161;-53
2022/11/21 01:46:08;;;;;;;;;5.33;3.00;;;;;9.88;73.93;100716.94;5096944;27;45371;-53
2022/11/21 01:48:50;;;;;;;;;1.33;1.00;;;;;9.89;74.01;100715.13;5097960;27;45439;-52
2022/11/21 01:51:19;;;;;;;;;9.00;2.00;;;;;9.90;73.93;100703.50;5097707;27;45280;-54
2022/11/21 01:54:09;;;;;;;;;2.00;2.00;;;;;9.89;74.18;100704.50;5097732;27;45459;-55
2022/11/21 01:56:42;;;;;;;;;7.00;1.67;;;;;9.90;73.76;100692.88;5054855;28;45400;-53
2022/11/21 01:59:13;;;;;;;;;5.00;4.33;;;;;9.91;73.72;100683.97;5054688;28;45310;-56
2022/11/21 02:01:39;;;;;;;;;3.00;2.00;;;;;9.89;74.00;100675.28;5054875;28;45283;-55
2022/11/21 02:04:06;;;;;;;;;2.00;1.33;;;;;9.89;73.97;100677.94;5054451;28;45645;-54
2022/11/21 02:06:33;;;;;;;;;7.33;3.67;;;;;9.87;74.12;100679.91;5054611;28;45281;-54
2022/11/21 02:09:00;;;;;;;;;3.67;3.00;;;;;9.88;73.96;100698.34;5054595;28;45506;-54
2022/11/21 02:11:31;;;;;;;;;7.00;3.67;;;;;9.89;73.89;100688.56;5055336;28;45436;-51
2022/11/21 02:13:57;;;;;;;;;5.33;3.67;;;;;9.91;74.06;100686.63;5055065;28;45396;-49
2022/11/21 02:16:24;;;;;;;;;3.67;2.00;;;;;9.90;73.87;100683.13;5054867;28;45313;-51
2022/11/21 02:18:49;;;;;;;;;5.67;3.67;;;;;9.91;73.56;100678.66;5055589;28;45359;-54
2022/11/21 02:21:23;;;;;;;;;5.33;2.33;;;;;9.89;73.72;100678.75;5055380;28;45566;-50
2022/11/21 02:23:57;;;;;;;;;9.00;3.67;;;;;9.90;73.92;100684.91;5054519;28;46131;-54
2022/11/21 02:26:22;;;;;;;;;5.67;2.33;;;;;9.89;74.19;100673.44;5054248;28;45481;-55
2022/11/21 02:28:48;;;;;;;;;5.33;1.33;;;;;9.89;73.87;100665.47;5054024;28;45295;-56
2022/11/21 02:31:13;;;;;;;;;2.33;2.00;;;;;9.90;73.84;100666.31;5054864;28;45402;-54
2022/11/21 02:33:39;;;;;;;;;5.67;3.00;;;;;9.89;73.33;100660.16;5074773;27;45330;-51
2022/11/21 02:36:24;;;;;;;;;6.67;3.00;;;;;9.89;73.80;100651.38;5097303;27;45281;-54
2022/11/21 02:38:49;;;;;;;;;4.67;3.67;;;;;9.85;73.73;100650.81;5097329;27;45399;-55
2022/11/21 02:41:25;;;;;;;;;6.00;2.00;;;;;9.84;74.01;100643.81;5097433;27;45522;-51
2022/11/21 02:44:08;;;;;;;;;4.33;3.00;;;;;9.84;73.40;100654.47;5096883;27;47070;-52
2022/11/21 02:46:34;;;;;;;;;10.67;5.00;;;;;9.73;73.49;100631.56;5096749;27;45310;-56
2022/11/21 02:49:05;;;;;;;;;7.67;5.00;;;;;9.81;73.58;100652.06;5097081;27;45270;-55
2022/11/21 02:51:30;;;;;;;;;6.33;2.00;;;;;9.77;73.67;100640.06;5097184;27;45351;-52
2022/11/21 02:53:55;;;;;;;;;3.67;3.67;;;;;9.78;73.58;100636.44;5096822;27;50047;-55
2022/11/21 02:56:21;;;;;;;;;4.33;3.00;;;;;9.74;73.80;100625.28;5097002;27;45380;-54
2022/11/21 02:58:46;;;;;;;;;3.67;3.67;;;;;9.77;74.09;100633.91;5097064;27;45366;-53
2022/11/21 03:01:11;;;;;;;;;3.00;3.00;;;;;9.78;74.16;100625.81;5098659;27;45443;-48
2022/11/21 03:03:37;;;;;;;;;2.67;2.67;;;;;9.75;74.09;100621.63;5100333;27;46153;-53
2022/11/21 03:06:02;;;;;;;;;6.00;3.00;;;;;9.74;73.84;100624.44;5100404;27;45605;-56
2022/11/21 03:08:28;;;;;;;;;2.67;2.67;;;;;9.69;73.78;100610.72;5100852;27;45329;-54
2022/11/21 03:10:53;;;;;;;;;5.00;3.00;;;;;9.69;73.80;100622.22;5101386;27;45234;-50
2022/11/21 03:13:18;;;;;;;;;2.00;2.00;;;;;9.68;73.89;100623.16;5100771;27;46376;-54
2022/11/21 03:15:44;;;;;;;;;6.33;4.67;;;;;9.54;74.27;100599.72;5100580;27;45354;-55
2022/11/21 03:18:09;;;;;;;;;11.00;4.33;;;;;9.61;73.83;100614.13;5099995;27;46404;-56
2022/11/21 03:20:34;;;;;;;;;9.67;3.00;;;;;9.60;74.03;100612.44;5100689;27;45349;-53
2022/11/21 03:23:00;;;;;;;;;5.33;3.33;;;;;9.61;74.09;100608.81;5100061;27;46246;-51
2022/11/21 03:25:25;;;;;;;;;3.33;3.33;;;;;9.56;73.95;100596.94;5100038;27;45440;-53
2022/11/21 03:27:52;;;;;;;;;4.00;4.00;;;;;9.45;74.29;100577.53;5100149;27;45404;-53
2022/11/21 03:30:19;;;;;;;;;9.00;2.00;;;;;9.45;74.95;100585.50;5100284;27;45554;-55
2022/11/21 03:32:44;;;;;;;;;13.00;5.00;;;;;9.44;73.99;100586.50;5099963;27;46326;-53
2022/11/21 03:35:10;;;;;;;;;10.00;3.67;;;;;9.44;74.63;100580.34;5099630;27;45302;-55
2022/11/21 03:37:35;;;;;;;;;7.00;3.00;;;;;9.42;74.49;100567.19;5099909;27;45363;-56
2022/11/21 03:40:00;;;;;;;;;8.33;5.67;;;;;9.39;74.67;100551.53;5100214;27;45382;-54
2022/11/21 03:42:26;;;;;;;;;6.67;3.33;;;;;9.38;74.69;100549.88;5099858;27;46055;-55
2022/11/21 03:44:51;;;;;;;;;6.67;5.00;;;;;9.39;75.03;100550.72;5099627;27;45252;-54
2022/11/21 03:47:16;;;;;;;;;9.00;5.00;;;;;9.39;74.55;100546.22;5099860;27;45374;-52
2022/11/21 03:49:42;;;;;;;;;8.33;5.00;;;;;9.38;74.81;100546.38;5100161;27;45241;-54
2022/11/21 03:52:07;;;;;;;;;9.33;6.00;;;;;9.33;74.83;100548.66;5099504;27;46025;-55
2022/11/21 03:54:32;;;;;;;;;5.00;5.00;;;;;9.33;75.32;100546.00;5099545;27;45432;-55
2022/11/21 03:56:58;;;;;;;;;4.67;2.00;;;;;9.31;74.97;100547.94;5099837;27;45336;-56
2022/11/21 03:59:23;;;;;;;;;3.00;3.00;;;;;9.30;75.30;100543.63;5099800;27;45369;-51
2022/11/21 04:01:50;;;;;;;;;7.67;3.33;;;;;9.21;75.01;100530.22;5099182;27;45488;-54
2022/11/21 04:04:15;;;;;;;;;9.33;6.00;;;;;9.29;74.71;100536.63;5099635;27;45279;-54
2022/11/21 04:06:40;;;;;;;;;5.33;5.00;;;;;9.25;74.69;100520.16;5098056;27;45300;-52
2022/11/21 04:09:06;;;;;;;;;8.67;5.00;;;;;9.19;75.71;100513.63;5099573;27;45317;-50
2022/11/21 04:11:31;;;;;;;;;5.00;5.00;;;;;9.19;75.37;100510.13;5099389;27;45343;-55
2022/11/21 04:13:56;;;;;;;;;16.00;5.00;;;;;9.15;75.20;100496.31;5098931;27;45479;-53
2022/11/21 04:16:22;;;;;;;;;7.00;7.00;;;;;9.07;75.98;100493.53;5099446;27;45426;-55
2022/11/21 04:18:47;;;;;;;;;10.67;7.00;;;;;9.06;75.95;100481.25;5099349;27;45275;-53
2022/11/21 04:21:12;;;;;;;;;9.33;5.67;;;;;9.05;75.77;100487.50;5098996;27;52055;-48
2022/11/21 04:23:38;;;;;;;;;6.33;4.67;;;;;8.99;76.26;100480.13;5099163;27;45345;-52
2022/11/21 04:26:03;;;;;;;;;5.67;5.67;;;;;8.99;75.88;100493.41;5099383;27;45299;-54
2022/11/21 04:28:28;;;;;;;;;7.00;6.00;;;;;8.96;76.22;100489.22;5099242;27;45354;-52
2022/11/21 04:30:54;;;;;;;;;9.67;7.00;;;;;8.88;76.34;100478.47;5099023;27;46117;-53
2022/11/21 04:33:19;;;;;;;;;6.67;6.00;;;;;8.82;75.96;100462.31;5097494;27;45448;-53
2022/11/21 04:35:45;;;;;;;;;6.33;6.33;;;;;8.81;77.06;100471.25;5098995;27;45300;-52
2022/11/21 04:38:12;;;;;;;;;6.33;5.00;;;;;8.74;76.84;100460.34;5099487;27;45377;-54
2022/11/21 04:40:38;;;;;;;;;6.00;6.00;;;;;8.72;77.01;100463.16;5097348;27;46236;-51
2022/11/21 04:43:03;;;;;;;;;5.67;5.67;;;;;8.66;77.33;100446.97;5098676;27;45375;-54
2022/11/21 04:45:29;;;;;;;;;11.00;6.67;;;;;8.67;77.05;100453.94;5097684;27;45444;-51
2022/11/21 04:47:55;;;;;;;;;6.67;6.00;;;;;8.67;76.79;100457.41;5099104;27;45584;-54
2022/11/21 04:50:20;;;;;;;;;13.25;5.00;;;;;8.72;76.87;100446.38;5098767;27;46631;-51
2022/11/21 04:52:53;;;;;;;;;12.67;5.67;;;;;8.72;76.66;100441.94;5098335;27;45186;-54
2022/11/21 04:55:20;;;;;;;;;10.00;8.00;;;;;8.68;77.36;100431.72;5098924;27;45350;-52
2022/11/21 04:57:46;;;;;;;;;10.00;6.00;;;;;8.65;77.00;100424.91;5099148;27;45300;-56
2022/11/21 05:00:13;;;;;;;;;9.00;8.50;;;;;8.65;77.10;100418.78;5098343;27;46077;-52
2022/11/21 05:02:38;;;;;;;;;7.67;7.67;;;;;8.65;76.88;100418.78;5098421;27;45385;-52
2022/11/21 05:05:04;;;;;;;;;10.00;6.00;;;;;8.64;77.58;100412.66;5098673;27;45419;-49
2022/11/21 05:07:30;;;;;;;;;18.33;9.00;;;;;8.64;77.14;100407.34;5098590;27;45437;-52
2022/11/21 05:09:55;;;;;;;;;11.67;8.33;;;;;8.66;76.62;100407.19;5098337;27;46110;-51
2022/11/21 05:15:04;;;;;;;;;7.00;7.00;;;;;8.66;77.28;100389.47;5098510;27;45263;-53
2022/11/21 05:17:30;;;;;;;;;6.00;5.75;;;;;8.67;77.38;100385.00;5098419;27;45357;-51
2022/11/21 05:19:55;;;;;;;;;11.75;6.75;;;;;8.59;77.87;100385.69;5098072;27;45662;-55
2022/11/21 05:22:21;;;;;;;;;17.00;8.00;;;;;8.56;77.18;100383.34;5098016;27;45352;-51
2022/11/21 05:24:46;;;;;;;;;15.00;9.50;;;;;8.54;77.46;100381.81;5097367;27;45744;-51
2022/11/21 05:27:11;;;;;;;;;8.75;8.75;;;;;8.51;77.26;100385.56;5098392;27;45226;-53
2022/11/21 05:29:37;;;;;;;;;10.50;6.50;;;;;8.45;77.35;100386.16;5097733;27;45956;-53
2022/11/21 05:32:02;;;;;;;;;10.00;10.00;;;;;8.42;77.28;100374.00;5098187;27;45409;-50
2022/11/21 05:34:27;;;;;;;;;9.00;5.50;;;;;8.42;76.87;100376.66;5098088;27;45234;-53
2022/11/21 05:36:59;;;;;;;;;14.00;9.50;;;;;8.53;76.62;100394.22;5098546;27;45227;-50
2022/11/21 05:39:25;;;;;;;;;12.25;8.50;;;;;8.50;77.52;100389.22;5097809;27;46202;-52
2022/11/21 05:41:51;;;;;;;;;12.25;9.00;;;;;8.51;77.01;100385.56;5097716;27;45351;-52
2022/11/21 05:44:16;;;;;;;;;17.75;9.75;;;;;8.51;77.18;100382.91;5097952;27;45386;-52
2022/11/21 05:46:41;;;;;;;;;15.75;8.00;;;;;8.55;76.72;100383.47;5097925;27;45232;-51
2022/11/21 05:49:07;;;;;;;;;13.25;10.00;;;;;8.53;77.58;100378.31;5097773;27;45412;-54
2022/11/21 05:51:32;;;;;;;;;11.25;8.50;;;;;8.54;76.77;100363.25;5097717;27;45201;-53
2022/11/21 05:53:58;;;;;;;;;7.00;7.00;;;;;8.52;77.09;100352.81;5097571;27;45299;-50
2022/11/21 05:56:24;;;;;;;;;13.50;10.50;;;;;8.57;76.64;100352.38;5098245;27;45444;-53
2022/11/21 05:58:49;;;;;;;;;13.00;8.00;;;;;8.54;76.52;100342.88;5097550;27;45492;-52
2022/11/21 06:03:25;;;;;;;;;9.67;6.00;;;;;8.56;77.37;100345.41;5097740;27;45498;-55
2022/11/21 06:04:00;;;;;;;;;6.75;5.75;;;;;8.57;77.52;100341.75;5097476;27;45170;-52
2022/11/21 06:06:25;;;;;;;;;9.00;6.00;;;;;8.59;77.30;100337.13;5097795;27;45501;-52
2022/11/21 06:08:51;;;;;;;;;13.75;7.25;;;;;8.62;77.49;100331.56;5097451;27;46127;-56
2022/11/21 06:11:16;;;;;;;;;14.75;10.00;;;;;8.58;77.18;100328.34;5097585;27;45421;-53
2022/11/21 06:13:42;;;;;;;;;14.75;8.50;;;;;8.56;77.13;100318.91;5097486;27;45311;-54
2022/11/21 06:16:10;;;;;;;;;16.25;8.00;;;;;8.59;77.04;100307.97;5097842;27;45279;-52
2022/11/21 06:18:37;;;;;;;;;12.00;10.00;;;;;8.57;77.28;100292.22;5097356;27;46060;-54
2022/11/21 06:21:08;;;;;;;;;15.75;10.75;;;;;8.58;77.04;100296.53;5097391;27;45273;-51
2022/11/21 06:23:35;;;;;;;;;12.25;8.00;;;;;8.54;77.53;100273.94;5097493;27;45366;-49
2022/11/21 06:26:02;;;;;;;;;9.00;7.00;;;;;8.57;77.32;100275.50;5097448;27;45462;-52
2022/11/21 06:28:37;;;;;;;;;10.00;7.50;;;;;8.55;77.49;100280.09;5097152;27;46025;-50
2022/11/21 06:31:16;;;;;;;;;9.75;8.50;;;;;8.54;77.10;100276.59;5097391;27;45401;-51
2022/11/21 06:33:42;;;;;;;;;11.75;10.50;;;;;8.49;76.74;100270.91;5097431;27;45489;-51
2022/11/21 06:36:14;;;;;;;;;20.75;11.00;;;;;8.52;77.47;100275.94;5098974;27;45366;-52
2022/11/21 06:38:40;;;;;;;;;13.00;13.00;;;;;8.54;77.55;100276.59;5100796;27;47161;-52
2022/11/21 06:41:16;;;;;;;;;12.00;10.50;;;;;8.53;77.21;100266.97;5101016;27;45318;-49
2022/11/21 06:43:42;;;;;;;;;19.75;13.00;;;;;8.55;76.48;100270.31;5100748;27;45438;-50
2022/11/21 06:46:08;;;;;;;;;16.00;16.00;;;;;8.35;77.20;100245.69;5100779;27;45460;-47
2022/11/21 06:48:35;;;;;;;;;16.75;13.75;;;;;8.47;77.44;100259.63;5100364;27;47333;-49
2022/11/21 06:51:05;;;;;;;;;27.50;17.50;;;;;8.46;77.65;100266.72;5100628;27;45527;-56
2022/11/21 06:53:31;;;;;;;;;20.75;17.25;;;;;8.44;77.42;100259.91;5100764;27;45255;-53
2022/11/21 06:56:00;;;;;;;;;18.75;11.25;;;;;8.44;78.19;100251.97;5100668;27;45599;-54
2022/11/21 06:58:26;;;;;;;;;21.50;16.00;;;;;8.44;78.10;100246.66;5100520;27;46092;-55
2022/11/21 07:00:51;;;;;;;;;29.50;15.75;;;;;8.45;78.04;100237.72;5100376;27;45408;-49
2022/11/21 07:03:17;;;;;;;;;19.75;15.00;;;;;8.44;77.05;100223.63;5100408;27;45255;-55
2022/11/21 07:05:42;;;;;;;;;24.00;14.00;;;;;8.38;77.49;100216.25;5100817;27;45256;-53
2022/11/21 07:08:07;;;;;;;;;16.50;15.00;;;;;8.27;77.53;100189.91;5100248;27;46554;-56
2022/11/21 07:10:33;;;;;;;;;18.50;10.50;;;;;8.37;77.67;100200.50;5100179;27;45330;-53
2022/11/21 07:15:45;;;;;;;;;22.75;13.50;;;;;8.28;77.30;100177.50;5100763;27;45254;-56
2022/11/21 07:18:11;;;;;;;;;21.25;13.75;;;;;8.17;77.81;100160.78;5099928;27;46341;-56
2022/11/21 07:20:36;;;;;;;;;14.00;12.25;;;;;8.23;77.83;100169.97;5100499;27;45485;-53
2022/11/21 07:23:02;;;;;;;;;17.25;17.25;;;;;8.25;77.48;100160.88;5100051;27;45432;-55
2022/11/21 07:25:27;;;;;;;;;18.25;13.75;;;;;8.30;78.32;100162.28;5100466;27;45531;-50
2022/11/21 07:27:53;;;;;;;;;18.75;14.25;;;;;8.25;77.14;100150.28;5100086;27;45638;-55
2022/11/21 07:30:18;;;;;;;;;21.00;15.25;;;;;8.20;77.50;100139.31;5099880;27;45343;-51
2022/11/21 07:32:44;;;;;;;;;16.25;14.00;;;;;8.18;77.05;100143.09;5100220;27;45295;-48
2022/11/21 07:35:09;;;;;;;;;18.00;13.00;;;;;8.14;78.06;100141.72;5100345;27;45653;-56
2022/11/21 07:37:38;;;;;;;;;13.50;13.25;;;;;8.06;77.48;100126.53;5099954;27;45368;-56
2022/11/21 07:40:05;;;;;;;;;23.00;14.00;;;;;8.02;78.77;100130.47;5098845;27;45278;-52
2022/11/21 07:42:33;;;;;;;;;17.25;12.75;;;;;8.02;78.06;100135.75;5099683;27;45376;-50
2022/11/21 07:44:59;;;;;;;;;18.00;13.75;;;;;8.00;78.36;100125.28;5099597;27;45281;-51
2022/11/21 07:47:24;;;;;;;;;22.00;15.25;;;;;8.02;77.74;100126.97;5098733;27;45384;-48
2022/11/21 07:49:49;;;;;;;;;26.25;15.75;;;;;7.99;77.86;100120.97;5099363;27;45327;-53
2022/11/21 07:52:15;;;;;;;;;23.00;18.75;;;;;8.00;78.14;100121.81;5099884;27;45657;-50
2022/11/21 07:54:40;;;;;;;;;21.00;18.50;;;;;7.95;78.45;100109.00;5099800;27;45511;-48
2022/11/21 07:57:05;;;;;;;;;20.50;17.50;;;;;7.97;78.61;100114.19;5099568;27;46377;-54
2022/11/21 07:59:31;;;;;;;;;26.50;20.25;;;;;7.90;78.24;100095.38;5099448;27;45363;-55
2022/11/21 08:01:56;;;;;;;;;24.75;18.00;;;;;7.94;78.16;100090.63;5099632;27;45291;-55
2022/11/21 08:04:21;;;;;;;;;20.50;17.75;;;;;7.96;78.43;100067.47;5099717;27;45351;-55
2022/11/21 08:06:46;;;;;;;;;17.75;17.75;;;;;7.97;78.29;100058.56;5099267;27;46097;-55
2022/11/21 08:09:12;;;;;;;;;21.50;19.25;;;;;7.91;79.03;100040.59;5097902;27;45383;-53
2022/11/21 08:11:37;;;;;;;;;23.00;16.75;;;;;7.88;79.61;100038.22;5099513;27;45290;-50
2022/11/21 08:14:03;;;;;;;;;22.00;17.25;;;;;7.94;79.27;100042.97;5099599;27;45318;-53
2022/11/21 08:16:31;;;;;;;;;20.75;14.00;;;;;7.91;79.20;100053.84;5099210;27;45315;-52
2022/11/21 08:18:58;;;;;;;;;23.75;19.50;;;;;7.92;78.76;100045.75;5099074;27;45465;-55
2022/11/21 08:21:23;;;;;;;;;23.75;17.75;;;;;7.96;78.96;100041.84;5099261;27;45382;-54
2022/11/21 08:23:48;;;;;;;;;25.00;18.00;;;;;7.97;79.00;100045.31;5099408;27;45444;-50
2022/11/21 08:26:14;;;;;;;;;24.25;16.50;;;;;7.96;79.30;100040.97;5099096;27;45539;-53
2022/11/21 08:28:39;;;;;;;;;21.00;14.75;;;;;8.00;78.50;100031.75;5099031;27;45293;-54
2022/11/21 08:31:05;;;;;;;;;19.00;14.00;;;;;8.00;79.22;100031.75;5099045;27;45302;-50
2022/11/21 08:33:31;;;;;;;;;16.50;14.00;;;;;7.93;78.92;100028.06;5099176;27;45446;-52
2022/11/21 08:35:56;;;;;;;;;26.25;19.75;;;;;8.04;78.87;100042.91;5099001;27;45356;-53
2022/11/21 08:38:22;;;;;;;;;18.00;17.50;;;;;8.04;78.61;100038.44;5098787;27;45582;-55
2022/11/21 08:42:01;;;;;;;;;15.00;12.00;;;;;8.06;77.57;100038.31;5098968;27;45335;-51
2022/11/21 08:43:32;;;;;;;;;16.00;12.00;;;;;8.01;78.29;100041.41;5099195;27;45456;-54
2022/11/21 08:45:58;;;;;;;;;18.75;15.50;;;;;8.02;78.87;100031.63;5098481;27;45278;-52
2022/11/21 08:48:23;;;;;;;;;22.75;14.00;;;;;8.01;78.90;100052.00;5098511;27;45495;-53
2022/11/21 08:50:48;;;;;;;;;16.25;13.50;;;;;8.02;78.56;100044.88;5098921;27;45424;-54
2022/11/21 08:53:14;;;;;;;;;17.50;15.25;;;;;8.02;78.40;100045.72;5098785;27;45483;-53
2022/11/21 08:55:39;;;;;;;;;17.25;16.00;;;;;7.96;79.40;100031.25;5098684;27;45863;-52
2022/11/21 08:58:04;;;;;;;;;16.00;10.25;;;;;7.93;79.07;100025.41;5098515;27;45365;-52
2022/11/21 09:00:29;;;;;;;;;9.50;9.50;;;;;7.95;78.88;100021.63;5098715;27;45186;-53
2022/11/21 09:02:55;;;;;;;;;18.00;12.00;;;;;7.59;79.85;99941.28;5098637;27;45458;-49
2022/11/21 09:05:20;;;;;;;;;25.25;14.75;;;;;7.96;79.24;99991.53;5098202;27;45437;-49
2022/11/21 09:07:46;;;;;;;;;20.50;15.75;;;;;7.98;79.83;99968.34;5098643;27;45295;-50
2022/11/21 09:10:11;;;;;;;;;15.00;8.00;;;;;7.98;79.44;99956.94;5098383;27;45348;-53
2022/11/21 09:12:37;;;;;;;;;14.00;9.00;;;;;7.99;80.39;99963.88;5098645;27;45584;-52
2022/11/21 09:18:04;;;;;;;;;14.50;13.00;;;;;8.03;79.97;99965.25;5098385;27;45191;-54
2022/11/21 09:20:32;;;;;;;;;13.00;9.50;;;;;8.07;80.03;99963.16;5098254;27;45361;-55
2022/11/21 09:23:06;;;;;;;;;7.50;7.50;;;;;8.04;79.67;99966.91;5098378;27;45365;-52
2022/11/21 09:25:31;;;;;;;;;12.25;9.50;;;;;8.00;79.53;99950.47;5098005;27;47317;-51
2022/11/21 09:28:01;;;;;;;;;11.75;9.75;;;;;8.09;79.55;99939.97;5098051;27;46189;-53
2022/11/21 09:30:26;;;;;;;;;15.00;9.25;;;;;8.08;79.60;99928.56;5098147;27;45370;-50
2022/11/21 09:32:52;;;;;;;;;12.25;10.00;;;;;8.09;80.13;99930.25;5098249;27;45509;-51
2022/11/21 09:35:17;;;;;;;;;12.75;12.75;;;;;8.06;79.44;99900.56;5097906;27;47007;-50
2022/11/21 09:37:42;;;;;;;;;18.50;11.25;;;;;8.21;79.83;99915.75;5096995;27;45314;-54
2022/11/21 09:40:17;;;;;;;;;14.75;12.00;;;;;8.21;78.75;99902.50;5098233;27;45403;-51
2022/11/21 09:42:48;;;;;;;;;12.00;9.00;;;;;8.27;79.49;99905.56;5098074;27;45568;-47
2022/11/21 09:45:22;;;;;;;;;12.00;9.75;;;;;8.27;79.12;99895.78;5097578;27;46194;-47
2022/11/21 09:47:50;;;;;;;;;14.25;11.50;;;;;8.29;79.11;99858.53;5097735;27;45428;-50
2022/11/21 09:50:26;;;;;;;;;15.00;11.00;;;;;8.28;79.66;99849.75;5097719;27;45468;-49
2022/11/21 09:53:02;;;;;;;;;12.00;8.00;;;;;8.29;79.43;99839.97;5098000;27;45476;-51
2022/11/21 09:55:33;;;;;;;;;6.75;3.00;;;;;8.28;78.62;99831.22;5097999;27;46390;-50
2022/11/21 09:58:02;;;;;;;;;9.50;9.00;;;;;8.16;79.40;99801.47;5097634;27;45571;-54
2022/11/21 10:00:27;;;;;;;;;10.50;7.75;;;;;8.27;79.55;99834.03;5097888;27;45310;-49
2022/11/21 10:02:54;;;;;;;;;22.25;12.00;;;;;8.29;80.04;99832.03;5098059;27;45430;-55
2022/11/21 10:05:35;;;;;;;;;14.00;7.50;;;;;8.28;79.41;99815.31;5097638;27;47318;-48
2022/11/21 10:08:12;;;;;;;;;12.50;8.00;;;;;8.32;79.00;99806.06;5098126;27;45317;-55
2022/11/21 10:10:54;;;;;;;;;15.00;9.00;;;;;8.31;79.07;99791.16;5097292;27;45299;-54
2022/11/21 10:13:42;;;;;;;;;11.75;8.50;;;;;8.35;78.71;99781.91;5097812;27;45271;-52
2022/11/21 10:16:43;;;;;;;;;15.50;9.25;;;;;8.34;79.50;99782.88;5087398;27;46214;-54
2022/11/21 10:19:24;;;;;;;;;13.75;8.75;;;;;8.35;79.73;99768.66;5097265;27;45508;-51
2022/11/21 10:22:27;;;;;;;;;6.50;4.50;;;;;8.38;79.01;99756.94;5097587;27;45237;-55
2022/11/21 10:25:00;;;;;;;;;7.00;5.75;;;;;8.41;79.64;99757.47;5097517;27;45227;-48
2022/11/21 10:27:33;;;;;;;;;11.25;9.25;;;;;8.41;79.10;99740.72;5096961;27;46417;-49
2022/11/21 10:30:04;;;;;;;;;14.50;10.50;;;;;8.44;78.45;99745.72;5097263;27;45428;-51
2022/11/21 10:32:38;;;;;;;;;15.50;9.00;;;;;8.52;78.64;99723.75;5097213;27;45519;-51
2022/11/21 10:35:13;;;;;;;;;14.25;9.00;;;;;8.59;78.89;99709.66;5097211;27;45503;-48
2022/11/21 10:38:02;;;;;;;;;11.50;7.50;;;;;8.69;78.86;99709.56;5097140;27;45247;-52
2022/11/21 10:40:39;;;;;;;;;13.00;11.00;;;;;8.75;78.37;99709.72;5097084;27;45396;-51
2022/11/21 10:46:28;;;;;;;;;10.67;9.00;;;;;8.80;77.73;99708.41;5033900;28;45491;-49
2022/11/21 10:49:02;;;;;;;;;9.00;6.67;;;;;8.85;78.77;99698.16;5033865;28;46091;-49
2022/11/21 10:51:47;;;;;;;;;10.33;5.67;;;;;8.86;78.52;99682.09;5034183;28;45315;-50
2022/11/21 10:54:31;;;;;;;;;19.00;11.33;;;;;8.90;77.52;99664.06;5034364;28;45491;-48
2022/11/21 10:57:15;;;;;;;;;9.67;5.00;;;;;8.84;77.49;99644.28;5034419;28;45352;-55
2022/11/21 10:59:54;;;;;;;;;10.00;6.33;;;;;8.92;77.77;99651.44;5034048;28;46414;-49
2022/11/21 11:02:23;;;;;;;;;9.00;8.67;;;;;8.95;77.49;99651.13;5033878;28;45433;-49
2022/11/21 11:05:08;;;;;;;;;8.33;5.33;;;;;8.97;76.99;99643.81;5034036;28;45413;-47
2022/11/21 11:07:34;;;;;;;;;14.00;9.00;;;;;8.99;77.60;99632.06;5033913;28;45438;-51
2022/11/21 11:10:21;;;;;;;;;9.00;6.33;;;;;9.01;77.34;99631.88;5033623;28;46244;-48
2022/11/21 11:15:58;;;;;;;;;7.00;7.00;;;;;9.04;76.72;99628.09;4994078;28;45424;-49
2022/11/21 11:18:24;;;;;;;;;9.67;8.33;;;;;9.02;77.56;99622.97;4994263;28;45528;-51
2022/11/21 11:20:50;;;;;;;;;12.33;9.67;;;;;9.04;77.07;99615.66;4993619;28;46168;-51
2022/11/21 11:23:18;;;;;;;;;7.67;6.00;;;;;9.06;76.93;99610.16;5008251;28;45443;-54
2022/11/21 11:25:49;;;;;;;;;13.33;7.33;;;;;9.04;77.32;99597.09;5017039;28;45441;-47
2022/11/21 11:28:18;;;;;;;;;13.33;7.00;;;;;9.07;77.54;99595.94;5017133;28;45392;-54
2022/11/21 11:30:44;;;;;;;;;10.00;5.33;;;;;9.07;77.08;99583.50;5017121;28;46080;-53
2022/11/21 11:33:39;;;;;;;;;9.00;6.00;;;;;9.04;76.83;99575.88;5017031;28;45906;-49
2022/11/21 11:36:18;;;;;;;;;9.00;6.00;;;;;9.04;76.84;99570.56;5017012;28;45547;-55
2022/11/21 11:38:56;;;;;;;;;7.33;5.00;;;;;9.02;77.49;99558.44;5017186;28;45510;-49
2022/11/21 11:47:36;;;;;;;;;16.00;12.33;;;;;9.03;77.62;99512.38;5016895;28;45515;-49
2022/11/21 11:50:11;;;;;;;;;11.00;9.33;;;;;9.05;77.17;99497.94;5016890;28;45460;-50
2022/11/21 11:52:49;;;;;;;;;14.67;10.00;;;;;9.07;76.80;99492.47;5073836;27;45951;-50
2022/11/21 11:55:47;;;;;;;;;15.67;10.00;;;;;9.05;77.29;99475.88;5099549;27;45222;-52